Time;durP1;ratioP1;P1;durP2;ratioP2;P2;SDS_P1;SDS_P2;PMS_P1;PMS_P2;Temp;Humidity;BMP_temperature;BMP_pressure;BME280_temperature;BME280_humidity;BME280_pressure;Samples;Min_cycle;Max_cycle;Signal;HPM_P1;HPM_P2
2023/03/27 00:00:41;;;;;;;1.03;1.03;;;5.40;97.30;;;;;;5105095;28;20411;-85
2023/03/27 00:03:08;;;;;;;1.23;1.17;;;5.40;97.30;;;;;;5103284;28;20415;-85
2023/03/27 00:05:34;;;;;;;1.50;1.40;;;5.30;97.30;;;;;;5103835;28;20417;-85
2023/03/27 00:08:00;;;;;;;1.67;1.60;;;5.40;97.30;;;;;;5102695;28;20431;-87
2023/03/27 00:10:26;;;;;;;1.47;1.43;;;5.40;97.30;;;;;;5103260;28;20420;-84
2023/03/27 00:12:53;;;;;;;1.83;1.73;;;5.40;97.30;;;;;;5108699;28;20452;-85
2023/03/27 00:15:19;;;;;;;1.30;1.20;;;5.40;97.30;;;;;;5101911;28;20513;-85
2023/03/27 00:17:50;;;;;;;1.57;1.47;;;5.40;97.30;;;;;;5105911;28;20527;-85
2023/03/27 00:20:21;;;;;;;2.47;2.27;;;5.40;97.30;;;;;;5099689;28;20277;-88
2023/03/27 00:22:48;;;;;;;1.27;1.17;;;5.50;97.30;;;;;;5096173;28;20424;-88
2023/03/27 00:25:15;;;;;;;1.87;1.77;;;5.50;97.30;;;;;;5103124;28;20469;-85
2023/03/27 00:27:42;;;;;;;1.37;1.27;;;5.50;97.30;;;;;;5102295;28;20420;-84
2023/03/27 00:30:09;;;;;;;2.70;2.40;;;5.50;97.30;;;;;;5110026;28;20422;-85
2023/03/27 00:32:35;;;;;;;1.53;1.43;;;5.50;97.30;;;;;;5100045;28;20472;-84
2023/03/27 00:35:03;;;;;;;1.93;1.90;;;5.50;97.30;;;;;;5105835;28;20423;-87
2023/03/27 00:37:29;;;;;;;1.30;1.20;;;5.40;97.30;;;;;;5096858;28;20413;-84
2023/03/27 00:39:55;;;;;;;37.17;3.33;;;5.40;97.30;;;;;;5096597;28;20742;-85
2023/03/27 00:42:24;;;;;;;1.10;1.00;;;5.40;97.30;;;;;;5101694;28;20268;-85
2023/03/27 00:44:51;;;;;;;1.37;1.30;;;5.40;97.30;;;;;;5102682;28;20412;-85
2023/03/27 00:47:31;;;;;;;1.10;1.00;;;5.40;97.30;;;;;;5094466;28;21062;-87
2023/03/27 00:50:05;;;;;;;1.10;1.00;;;5.40;97.30;;;;;;5102745;28;20439;-88
2023/03/27 00:52:32;;;;;;;1.53;1.43;;;5.40;97.30;;;;;;5095090;28;20466;-85
2023/03/27 00:55:01;;;;;;;1.13;1.03;;;5.40;97.30;;;;;;5091195;28;20448;-85
2023/03/27 00:57:28;;;;;;;1.33;1.30;;;5.40;97.30;;;;;;5102837;28;20408;-86
2023/03/27 00:59:56;;;;;;;1.30;1.20;;;5.40;97.30;;;;;;5103289;28;20518;-85
2023/03/27 01:02:22;;;;;;;1.60;1.50;;;5.40;97.30;;;;;;5099825;28;20419;-85
2023/03/27 01:04:49;;;;;;;1.10;1.00;;;5.30;97.30;;;;;;5097230;28;20864;-85
2023/03/27 01:07:14;;;;;;;4.60;1.47;;;5.30;97.30;;;;;;5098858;28;20422;-85
2023/03/27 01:09:40;;;;;;;1.10;1.00;;;5.30;97.30;;;;;;5104720;28;20429;-86
2023/03/27 01:12:25;;;;;;;1.20;1.10;;;5.30;97.30;;;;;;5102143;28;20817;-85
2023/03/27 01:15:20;;;;;;;11.40;1.20;;;5.20;97.30;;;;;;5098866;28;20423;-85
2023/03/27 01:18:23;;;;;;;4.80;1.87;;;5.20;97.30;;;;;;5103546;28;20414;-85
2023/03/27 01:21:06;;;;;;;1.30;1.20;;;5.20;97.30;;;;;;5103512;28;20497;-86
2023/03/27 01:23:57;;;;;;;1.50;1.40;;;5.20;97.30;;;;;;5094885;28;20420;-88
2023/03/27 01:26:38;;;;;;;1.33;1.30;;;5.10;97.30;;;;;;5109009;28;20419;-87
2023/03/27 01:29:10;;;;;;;1.30;1.20;;;5.10;97.30;;;;;;5120882;28;20439;-89
2023/03/27 01:31:59;;;;;;;1.23;1.13;;;5.10;97.30;;;;;;5107292;28;20451;-89
2023/03/27 01:34:45;;;;;;;1.47;1.37;;;5.00;97.30;;;;;;5095119;28;20470;-88
2023/03/27 01:37:16;;;;;;;1.00;0.90;;;5.00;97.30;;;;;;5101255;28;20427;-87
2023/03/27 01:39:51;;;;;;;3.37;3.00;;;4.90;97.30;;;;;;5105920;28;20432;-87
2023/03/27 01:42:35;;;;;;;1.10;1.00;;;4.90;97.30;;;;;;5096369;28;20420;-87
2023/03/27 01:45:07;;;;;;;1.10;1.00;;;4.90;97.30;;;;;;5104408;28;20423;-86
2023/03/27 01:47:50;;;;;;;1.10;1.00;;;4.80;97.30;;;;;;5108048;28;20502;-88
2023/03/27 01:50:19;;;;;;;1.30;1.20;;;4.80;97.30;;;;;;5095769;28;20411;-87
2023/03/27 01:53:03;;;;;;;3.27;2.33;;;4.80;97.30;;;;;;5104303;28;20459;-89
2023/03/27 01:55:33;;;;;;;1.20;1.10;;;4.80;97.30;;;;;;5092765;28;20520;-89
2023/03/27 01:58:15;;;;;;;1.83;1.63;;;4.80;97.30;;;;;;5096187;28;20444;-89
2023/03/27 02:00:44;;;;;;;1.13;1.03;;;4.80;97.30;;;;;;5098257;28;20444;-88
2023/03/27 02:03:21;;;;;;;1.83;1.73;;;4.80;97.30;;;;;;5092645;28;20408;-90
2023/03/27 02:05:55;;;;;;;1.20;1.10;;;4.70;97.30;;;;;;5111530;28;20446;-88
2023/03/27 02:08:23;;;;;;;1.20;1.10;;;4.70;97.30;;;;;;5104524;28;20442;-89
2023/03/27 02:10:54;;;;;;;1.10;1.00;;;4.70;97.30;;;;;;5096548;28;21051;-89
2023/03/27 02:13:28;;;;;;;3.03;1.30;;;4.70;97.30;;;;;;5114735;28;20444;-89
2023/03/27 02:15:57;;;;;;;1.67;1.63;;;4.70;97.30;;;;;;5110133;28;20454;-89
2023/03/27 02:18:31;;;;;;;2.97;2.77;;;4.70;97.30;;;;;;5112317;28;20872;-89
2023/03/27 02:20:56;;;;;;;1.80;1.40;;;4.70;97.30;;;;;;5118617;28;20404;-89
2023/03/27 02:23:22;;;;;;;1.60;1.50;;;4.70;97.30;;;;;;5110844;28;20670;-89
2023/03/27 02:25:50;;;;;;;1.73;1.63;;;4.70;97.30;;;;;;5107138;28;20655;-89
2023/03/27 02:28:30;;;;;;;1.37;1.27;;;4.60;97.30;;;;;;5100810;28;20217;-89
2023/03/27 02:31:02;;;;;;;1.63;1.53;;;4.60;97.30;;;;;;5109343;28;20454;-89
2023/03/27 02:33:52;;;;;;;4.37;2.30;;;4.60;97.30;;;;;;5111682;28;20470;-88
2023/03/27 02:36:40;;;;;;;1.57;1.47;;;4.50;97.30;;;;;;5096823;28;20938;-89
2023/03/27 02:39:34;;;;;;;1.80;1.57;;;4.50;97.30;;;;;;5111233;28;20959;-89
2023/03/27 02:42:21;;;;;;;1.10;1.00;;;4.50;97.30;;;;;;5103019;28;20424;-88
2023/03/27 02:45:09;;;;;;;1.10;1.00;;;4.50;97.30;;;;;;5105348;28;20496;-89
2023/03/27 02:47:48;;;;;;;1.83;1.50;;;4.50;97.30;;;;;;5110100;28;20415;-88
2023/03/27 02:50:33;;;;;;;1.20;1.10;;;4.50;97.30;;;;;;5112705;28;20419;-89
2023/03/27 02:53:02;;;;;;;1.90;1.30;;;4.50;97.30;;;;;;5118719;28;20465;-89
2023/03/27 02:55:40;;;;;;;1.30;1.20;;;4.50;97.30;;;;;;5115977;28;20424;-89
2023/03/27 02:58:09;;;;;;;1.53;1.43;;;4.50;97.30;;;;;;5112081;28;20510;-89
2023/03/27 03:00:42;;;;;;;2.00;1.90;;;4.50;97.30;;;;;;5108173;28;20424;-89
2023/03/27 03:03:21;;;;;;;2.07;1.93;;;4.50;97.30;;;;;;5110811;28;20451;-89
2023/03/27 03:05:46;;;;;;;4.73;2.07;;;4.50;97.30;;;;;;5114744;28;20455;-88
2023/03/27 03:08:13;;;;;;;2.23;2.03;;;4.40;97.30;;;;;;5110007;28;20809;-89
2023/03/27 03:10:46;;;;;;;1.00;0.90;;;4.40;97.30;;;;;;5114431;28;20185;-89
2023/03/27 03:13:12;;;;;;;2.33;1.20;;;4.40;97.30;;;;;;5108259;28;20474;-88
2023/03/27 03:15:38;;;;;;;1.10;1.00;;;4.40;97.30;;;;;;5113753;28;20504;-88
2023/03/27 03:18:03;;;;;;;1.13;1.03;;;4.40;97.30;;;;;;5100831;28;20447;-89
2023/03/27 03:20:29;;;;;;;1.20;1.10;;;4.40;97.30;;;;;;5103936;28;20186;-89
2023/03/27 03:22:58;;;;;;;1.77;1.67;;;4.30;97.30;;;;;;5108058;28;20185;-89
2023/03/27 03:25:24;;;;;;;4.37;2.23;;;4.30;97.30;;;;;;5109599;28;20178;-88
2023/03/27 03:27:56;;;;;;;1.40;1.30;;;4.40;97.30;;;;;;5109423;28;20463;-88
2023/03/27 03:30:26;;;;;;;1.30;1.20;;;4.30;97.30;;;;;;5113812;28;20553;-88
2023/03/27 03:32:53;;;;;;;1.27;1.17;;;4.30;97.30;;;;;;5104791;28;20461;-88
2023/03/27 03:35:23;;;;;;;1.00;0.90;;;4.30;97.30;;;;;;5108748;28;20774;-90
2023/03/27 03:37:50;;;;;;;1.13;1.03;;;4.30;97.30;;;;;;5110832;28;20435;-89
2023/03/27 03:40:17;;;;;;;1.20;1.10;;;4.30;97.30;;;;;;5114172;28;20428;-89
2023/03/27 03:42:48;;;;;;;1.60;1.50;;;4.30;97.30;;;;;;5113277;28;20460;-89
2023/03/27 03:45:14;;;;;;;4.37;3.20;;;4.20;97.30;;;;;;5110636;28;20493;-89
2023/03/27 03:47:41;;;;;;;5.80;1.93;;;4.20;97.30;;;;;;5111363;28;20412;-89
2023/03/27 03:50:08;;;;;;;1.50;1.40;;;4.20;97.30;;;;;;5105199;28;20814;-89
2023/03/27 03:52:33;;;;;;;1.10;1.00;;;4.20;97.30;;;;;;5114225;28;20427;-88
2023/03/27 03:54:59;;;;;;;1.30;1.20;;;4.20;97.30;;;;;;5098783;28;20418;-89
2023/03/27 03:57:24;;;;;;;1.20;1.10;;;4.20;97.30;;;;;;5102299;28;20174;-89
2023/03/27 03:59:50;;;;;;;8.73;1.67;;;4.20;97.30;;;;;;5098704;28;20280;-89
2023/03/27 04:02:27;;;;;;;1.10;1.00;;;4.20;97.30;;;;;;5102856;28;20170;-89
2023/03/27 04:04:55;;;;;;;1.00;0.90;;;4.10;97.30;;;;;;5102951;28;20385;-88
2023/03/27 04:07:22;;;;;;;1.10;1.00;;;4.00;97.30;;;;;;5109994;28;20439;-89
2023/03/27 04:09:49;;;;;;;1.73;1.63;;;4.00;97.30;;;;;;5110222;28;20963;-89
2023/03/27 04:12:15;;;;;;;1.10;1.00;;;4.00;97.30;;;;;;5099289;28;20424;-88
2023/03/27 04:14:41;;;;;;;1.47;1.40;;;3.90;97.30;;;;;;5108559;28;20483;-89
2023/03/27 04:17:07;;;;;;;1.80;1.60;;;3.90;97.30;;;;;;5110668;28;20824;-89
2023/03/27 04:19:32;;;;;;;1.83;1.73;;;3.90;97.30;;;;;;5100873;28;20433;-88
2023/03/27 04:22:01;;;;;;;1.80;1.70;;;3.90;97.30;;;;;;5114889;28;20239;-89
2023/03/27 04:24:29;;;;;;;1.33;1.23;;;3.80;97.30;;;;;;5106337;28;20175;-88
2023/03/27 04:26:57;;;;;;;1.60;1.50;;;3.70;97.30;;;;;;5116024;28;20427;-88
2023/03/27 04:29:23;;;;;;;1.20;1.10;;;3.70;97.30;;;;;;5099253;28;20443;-88
2023/03/27 04:31:49;;;;;;;2.03;1.30;;;3.60;97.30;;;;;;5111461;28;20459;-88
2023/03/27 04:34:19;;;;;;;1.00;0.90;;;3.50;97.30;;;;;;5095166;28;20471;-88
2023/03/27 04:36:45;;;;;;;1.10;1.00;;;3.50;97.30;;;;;;5102756;28;20718;-89
2023/03/27 04:39:11;;;;;;;1.83;1.53;;;3.50;97.30;;;;;;5099105;28;20496;-89
2023/03/27 04:41:37;;;;;;;1.10;1.00;;;3.40;97.30;;;;;;5102690;28;20435;-89
2023/03/27 04:44:04;;;;;;;1.00;0.90;;;3.40;97.30;;;;;;5104393;28;20245;-89
2023/03/27 04:46:30;;;;;;;1.53;1.43;;;3.30;97.30;;;;;;5105341;28;20435;-89
2023/03/27 04:48:55;;;;;;;3.53;1.83;;;3.30;97.30;;;;;;5095905;28;20602;-88
2023/03/27 04:51:21;;;;;;;1.73;1.50;;;3.20;97.30;;;;;;5112022;28;20182;-89
2023/03/27 04:53:46;;;;;;;1.77;1.67;;;3.20;97.30;;;;;;5112311;28;20562;-89
2023/03/27 04:56:12;;;;;;;1.87;1.77;;;3.20;97.30;;;;;;5114743;28;20177;-89
2023/03/27 04:58:40;;;;;;;1.27;1.17;;;3.20;97.30;;;;;;5097465;28;20206;-88
2023/03/27 05:01:05;;;;;;;1.03;0.93;;;3.10;97.30;;;;;;5095923;28;20209;-88
2023/03/27 05:03:33;;;;;;;1.20;1.10;;;3.10;97.30;;;;;;5096139;28;20432;-88
2023/03/27 05:05:59;;;;;;;1.20;1.10;;;3.10;97.30;;;;;;5089856;28;20186;-88
2023/03/27 05:08:25;;;;;;;1.53;1.43;;;3.10;97.30;;;;;;5097659;28;20456;-87
2023/03/27 05:10:50;;;;;;;5.97;2.03;;;3.00;97.30;;;;;;5093105;28;20186;-87
2023/03/27 05:13:16;;;;;;;2.10;1.57;;;3.00;97.30;;;;;;5100751;28;20451;-87
2023/03/27 05:15:42;;;;;;;1.30;1.20;;;2.90;97.30;;;;;;5098705;28;20229;-87
2023/03/27 05:18:08;;;;;;;1.10;1.00;;;2.90;97.30;;;;;;5095444;28;20206;-87
2023/03/27 05:20:34;;;;;;;1.40;1.30;;;2.90;97.30;;;;;;5102087;28;20449;-88
2023/03/27 05:23:00;;;;;;;1.20;1.10;;;2.90;97.30;;;;;;5100390;28;20652;-88
2023/03/27 05:25:26;;;;;;;1.03;0.93;;;2.90;97.30;;;;;;5106782;28;20420;-87
2023/03/27 05:27:52;;;;;;;1.00;0.90;;;2.90;97.30;;;;;;5085445;28;20209;-87
2023/03/27 05:30:20;;;;;;;1.13;1.03;;;2.90;97.30;;;;;;5096730;28;20416;-88
2023/03/27 05:32:47;;;;;;;1.10;1.00;;;2.90;97.30;;;;;;5099749;28;20509;-88
2023/03/27 05:35:15;;;;;;;1.10;1.00;;;2.90;97.30;;;;;;5104011;28;20451;-89
2023/03/27 05:37:46;;;;;;;1.17;1.07;;;2.90;97.30;;;;;;5101810;28;20427;-87
2023/03/27 05:40:14;;;;;;;1.10;1.00;;;2.90;97.30;;;;;;5093212;28;21036;-88
2023/03/27 05:42:44;;;;;;;1.27;1.17;;;2.90;97.30;;;;;;5107518;28;20442;-88
2023/03/27 05:45:11;;;;;;;1.57;1.47;;;2.90;97.30;;;;;;5096157;28;20444;-88
2023/03/27 05:47:48;;;;;;;1.10;1.00;;;2.80;97.30;;;;;;5105535;28;20417;-87
2023/03/27 05:50:15;;;;;;;1.10;1.00;;;2.80;97.30;;;;;;5107754;28;20819;-88
2023/03/27 05:52:41;;;;;;;1.13;1.03;;;2.80;97.30;;;;;;5102647;28;20490;-89
2023/03/27 05:55:07;;;;;;;3.10;1.70;;;2.80;97.30;;;;;;5106527;28;20413;-88
2023/03/27 05:57:40;;;;;;;3.37;2.60;;;2.80;97.30;;;;;;5102477;28;20432;-88
2023/03/27 06:00:15;;;;;;;1.30;1.20;;;2.80;97.30;;;;;;5106371;28;20487;-88
2023/03/27 06:02:45;;;;;;;1.37;1.27;;;2.70;97.30;;;;;;5106324;28;20427;-88
2023/03/27 06:05:15;;;;;;;1.17;1.07;;;2.70;97.30;;;;;;5114678;28;20420;-88
2023/03/27 06:07:42;;;;;;;1.10;1.00;;;2.70;97.30;;;;;;5108803;28;20925;-89
2023/03/27 06:10:10;;;;;;;1.00;0.90;;;2.70;97.30;;;;;;5111931;28;20417;-89
2023/03/27 06:12:36;;;;;;;1.10;1.00;;;2.70;97.30;;;;;;5109016;28;20973;-88
2023/03/27 06:15:04;;;;;;;6.10;1.93;;;2.70;97.30;;;;;;5106673;28;20427;-88
2023/03/27 06:17:30;;;;;;;1.20;1.10;;;2.70;97.30;;;;;;5114327;28;20419;-88
2023/03/27 06:19:56;;;;;;;1.10;1.00;;;2.80;97.30;;;;;;5108140;28;20460;-88
2023/03/27 06:22:22;;;;;;;1.30;1.20;;;;;;;;;;5114512;28;20169;-88
2023/03/27 06:24:48;;;;;;;1.10;1.10;;;2.90;97.30;;;;;;5110417;28;20413;-89
2023/03/27 06:27:13;;;;;;;1.00;0.90;;;3.00;97.30;;;;;;5114996;28;20473;-88
2023/03/27 06:29:39;;;;;;;1.10;1.00;;;3.00;97.30;;;;;;5115583;28;20202;-89
2023/03/27 06:32:05;;;;;;;1.10;1.00;;;2.90;97.30;;;;;;5112897;28;20247;-88
2023/03/27 06:34:30;;;;;;;1.27;1.20;;;2.80;97.30;;;;;;5116778;28;20206;-88
2023/03/27 06:36:58;;;;;;;1.40;1.30;;;2.80;97.30;;;;;;5111463;28;20423;-88
2023/03/27 06:39:26;;;;;;;1.40;1.37;;;2.70;97.30;;;;;;5116485;28;20574;-89
2023/03/27 06:41:52;;;;;;;1.10;1.00;;;2.70;97.30;;;;;;5118102;28;20411;-88
2023/03/27 06:44:17;;;;;;;1.20;1.10;;;2.70;97.30;;;;;;5116380;28;20432;-88
2023/03/27 06:46:43;;;;;;;1.20;1.10;;;2.80;97.30;;;;;;5112436;28;20416;-89
2023/03/27 06:49:09;;;;;;;1.20;1.10;;;2.80;97.30;;;;;;5117494;28;20201;-89
2023/03/27 06:51:37;;;;;;;1.17;1.07;;;2.90;97.30;;;;;;5119622;28;20445;-88
2023/03/27 06:54:03;;;;;;;1.30;1.20;;;2.90;97.30;;;;;;5109818;28;20209;-88
2023/03/27 06:56:29;;;;;;;1.13;1.10;;;2.90;97.30;;;;;;5117378;28;20480;-88
2023/03/27 06:58:55;;;;;;;1.10;1.00;;;2.90;97.30;;;;;;5119499;28;20265;-88
2023/03/27 07:01:21;;;;;;;1.83;1.73;;;3.00;97.30;;;;;;5096142;28;20409;-88
2023/03/27 07:03:47;;;;;;;5.63;1.87;;;3.10;97.30;;;;;;5114946;28;20457;-87
2023/03/27 07:06:13;;;;;;;1.30;1.20;;;3.10;97.30;;;;;;5111679;28;20174;-88
2023/03/27 07:08:44;;;;;;;1.00;0.90;;;3.10;97.30;;;;;;5106331;28;20464;-90
2023/03/27 07:11:10;;;;;;;2.10;1.60;;;3.10;97.30;;;;;;5113720;28;20546;-89
2023/03/27 07:13:36;;;;;;;1.30;1.20;;;3.10;97.30;;;;;;5118620;28;20458;-89
2023/03/27 07:16:01;;;;;;;7.93;2.60;;;3.10;97.30;;;;;;5108012;28;20926;-88
2023/03/27 07:18:40;;;;;;;1.70;1.30;;;3.10;97.30;;;;;;5105384;28;20985;-89
2023/03/27 07:21:14;;;;;;;1.67;1.57;;;3.10;97.30;;;;;;5115572;28;20221;-89
2023/03/27 07:23:44;;;;;;;1.10;1.00;;;3.20;97.30;;;;;;5114680;28;20536;-88
2023/03/27 07:26:10;;;;;;;1.37;1.27;;;3.30;97.30;;;;;;5111831;28;20428;-88
2023/03/27 07:28:37;;;;;;;3.60;1.97;;;3.40;97.30;;;;;;5114078;28;20530;-88
2023/03/27 07:31:07;;;;;;;1.00;0.90;;;3.40;97.30;;;;;;5108537;28;20758;-88
2023/03/27 07:33:42;;;;;;;1.30;1.20;;;3.50;97.30;;;;;;5109236;28;20562;-89
2023/03/27 07:36:08;;;;;;;1.40;1.30;;;3.50;97.30;;;;;;5108175;28;20420;-88
2023/03/27 07:38:48;;;;;;;1.17;1.07;;;3.60;97.30;;;;;;5100004;28;20432;-89
2023/03/27 07:41:13;;;;;;;1.63;1.30;;;3.70;97.30;;;;;;5103693;28;20503;-89
2023/03/27 07:43:39;;;;;;;1.10;1.00;;;3.70;97.30;;;;;;5100565;28;20448;-89
2023/03/27 07:46:05;;;;;;;1.67;1.10;;;3.80;97.30;;;;;;5107011;28;20238;-88
2023/03/27 07:48:31;;;;;;;1.00;0.90;;;3.90;97.30;;;;;;5105830;28;20232;-89
2023/03/27 07:51:00;;;;;;;21.50;1.77;;;3.90;97.30;;;;;;5110573;28;20421;-89
2023/03/27 07:53:26;;;;;;;1.20;1.10;;;4.00;97.30;;;;;;5089984;28;20460;-89
2023/03/27 07:55:53;;;;;;;1.00;0.90;;;4.10;97.30;;;;;;5105612;28;20448;-89
2023/03/27 07:58:20;;;;;;;1.10;1.00;;;4.10;97.30;;;;;;5108540;28;20208;-88
2023/03/27 08:00:51;;;;;;;1.50;1.40;;;4.10;97.30;;;;;;5099153;28;20413;-88
2023/03/27 08:03:18;;;;;;;1.30;1.20;;;4.20;97.30;;;;;;5109490;28;20494;-88
2023/03/27 08:05:55;;;;;;;1.83;1.73;;;4.30;97.30;;;;;;5103880;28;20415;-89
2023/03/27 08:08:24;;;;;;;6.40;1.87;;;4.30;97.30;;;;;;5111252;28;20443;-88
2023/03/27 08:10:50;;;;;;;2.83;1.43;;;4.40;97.30;;;;;;5100736;28;20431;-87
2023/03/27 08:13:17;;;;;;;1.10;1.00;;;4.40;97.30;;;;;;5108224;28;20460;-88
2023/03/27 08:15:43;;;;;;;1.00;0.90;;;4.50;97.30;;;;;;5106162;28;20407;-89
2023/03/27 08:18:10;;;;;;;0.90;0.80;;;4.60;97.30;;;;;;5109637;28;20518;-90
2023/03/27 08:20:36;;;;;;;1.10;1.00;;;4.60;96.00;;;;;;5117259;28;20461;-89
2023/03/27 08:23:03;;;;;;;1.10;1.00;;;4.60;97.00;;;;;;5105727;28;20516;-88
2023/03/27 08:25:31;;;;;;;1.10;1.00;;;4.80;97.20;;;;;;5110749;28;20431;-88
2023/03/27 08:27:58;;;;;;;1.27;1.17;;;4.80;96.20;;;;;;5106652;28;20517;-88
2023/03/27 08:30:23;;;;;;;1.20;1.10;;;4.90;96.70;;;;;;5104761;28;20500;-89
2023/03/27 08:32:50;;;;;;;1.07;0.97;;;4.90;96.10;;;;;;5103113;28;20502;-89
2023/03/27 08:35:16;;;;;;;6.83;1.33;;;5.00;96.10;;;;;;5104719;28;20185;-89
2023/03/27 08:37:43;;;;;;;1.83;1.73;;;5.10;96.30;;;;;;5107917;28;20465;-88
2023/03/27 08:40:24;;;;;;;8.20;1.40;;;5.20;96.60;;;;;;5106560;28;20508;-88
2023/03/27 08:42:54;;;;;;;1.30;1.20;;;5.30;96.00;;;;;;5107361;28;20424;-88
2023/03/27 08:45:31;;;;;;;1.00;0.90;;;5.20;95.30;;;;;;5107469;28;20427;-89
2023/03/27 08:48:29;;;;;;;1.10;1.00;;;4.90;94.90;;;;;;5101949;28;20432;-87
2023/03/27 08:51:07;;;;;;;8.90;1.53;;;4.80;95.90;;;;;;5094487;28;20419;-90
2023/03/27 08:53:38;;;;;;;1.20;1.10;;;4.70;96.50;;;;;;5101130;28;20459;-89
2023/03/27 08:56:05;;;;;;;1.20;1.10;;;4.70;96.90;;;;;;5108132;28;20416;-90
2023/03/27 08:58:33;;;;;;;1.10;1.00;;;4.80;96.90;;;;;;5095605;28;20447;-89
2023/03/27 09:01:08;;;;;;;2.97;2.77;;;4.80;96.60;;;;;;5101034;28;20817;-88
2023/03/27 09:03:54;;;;;;;2.73;1.73;;;4.90;96.00;;;;;;5093378;28;20747;-88
2023/03/27 09:06:37;;;;;;;1.37;1.27;;;4.90;95.70;;;;;;5107760;28;20420;-89
2023/03/27 09:09:15;;;;;;;1.63;1.53;;;5.00;96.50;;;;;;5097873;28;20476;-88
2023/03/27 09:11:48;;;;;;;1.10;1.00;;;5.10;96.60;;;;;;5100444;28;20546;-90
2023/03/27 09:14:30;;;;;;;1.00;0.90;;;5.30;96.20;;;;;;5108661;28;20905;-89
2023/03/27 09:17:01;;;;;;;1.30;1.20;;;5.60;95.10;;;;;;5108091;28;20419;-88
2023/03/27 09:19:49;;;;;;;1.00;0.90;;;5.80;94.50;;;;;;5096939;28;20443;-89
2023/03/27 09:22:30;;;;;;;4.63;1.83;;;6.10;94.20;;;;;;5104693;28;20472;-89
2023/03/27 09:25:02;;;;;;;1.37;1.27;;;6.10;92.10;;;;;;5105488;28;20648;-89
2023/03/27 09:27:34;;;;;;;1.23;1.13;;;6.00;92.50;;;;;;5091570;28;20419;-89
2023/03/27 09:30:13;;;;;;;4.07;2.00;;;5.80;92.40;;;;;;5098428;28;20448;-87
2023/03/27 09:32:40;;;;;;;1.10;1.00;;;5.80;92.70;;;;;;5100927;28;20495;-90
2023/03/27 09:35:12;;;;;;;1.57;1.33;;;5.90;90.40;;;;;;5095173;28;20718;-90
2023/03/27 09:37:38;;;;;;;1.10;1.00;;;5.70;89.70;;;;;;5098752;28;20426;-89
2023/03/27 09:40:07;;;;;;;1.20;1.10;;;5.80;90.10;;;;;;5108296;28;20989;-88
2023/03/27 09:42:37;;;;;;;1.27;1.17;;;5.90;89.90;;;;;;5120710;28;20419;-90
2023/03/27 09:45:06;;;;;;;1.10;1.00;;;5.80;88.80;;;;;;5124596;28;20469;-89
2023/03/27 09:47:56;;;;;;;1.23;1.13;;;6.00;90.90;;;;;;5117212;28;20795;-89
2023/03/27 09:50:40;;;;;;;0.97;0.87;;;6.10;88.20;;;;;;5100464;28;20416;-89
2023/03/27 09:53:21;;;;;;;2.07;1.93;;;6.30;87.30;;;;;;5104780;28;20462;-89
2023/03/27 09:55:51;;;;;;;1.00;0.90;;;6.50;87.60;;;;;;5109613;28;20464;-88
2023/03/27 09:58:26;;;;;;;1.43;1.23;;;6.50;87.10;;;;;;5100150;28;20494;-90
2023/03/27 10:01:07;;;;;;;1.80;1.70;;;6.30;87.20;;;;;;5107128;28;20895;-89
2023/03/27 10:03:37;;;;;;;0.90;0.80;;;6.10;88.10;;;;;;5099054;28;20443;-89
2023/03/27 10:06:12;;;;;;;1.20;1.10;;;6.00;87.90;;;;;;5103886;28;20424;-89
2023/03/27 10:08:46;;;;;;;1.20;1.10;;;6.10;87.30;;;;;;5090716;28;20961;-89
2023/03/27 10:11:19;;;;;;;1.10;1.10;;;6.20;86.90;;;;;;5096811;28;20584;-89
2023/03/27 10:13:49;;;;;;;1.10;1.00;;;6.50;89.00;;;;;;5096884;28;20466;-89
2023/03/27 10:16:17;;;;;;;1.30;1.20;;;6.40;87.70;;;;;;5107358;28;20419;-89
2023/03/27 10:18:49;;;;;;;1.00;0.90;;;6.40;88.10;;;;;;5101537;28;20437;-89
2023/03/27 10:21:41;;;;;;;4.03;1.40;;;6.30;88.70;;;;;;5094934;28;20523;-89
2023/03/27 10:24:16;;;;;;;17.17;2.50;;;6.40;88.70;;;;;;5090352;28;20488;-89
2023/03/27 10:26:41;;;;;;;1.40;1.30;;;6.60;89.60;;;;;;5107670;28;20473;-89
2023/03/27 10:29:22;;;;;;;1.10;1.00;;;6.50;88.70;;;;;;5107336;28;20440;-90
2023/03/27 10:31:54;;;;;;;1.00;0.90;;;6.20;88.50;;;;;;5099667;28;20252;-88
2023/03/27 10:34:33;;;;;;;1.13;1.03;;;6.30;88.20;;;;;;5095217;28;20472;-89
2023/03/27 10:37:00;;;;;;;1.00;0.90;;;6.60;88.40;;;;;;5094614;28;20415;-90
2023/03/27 10:39:34;;;;;;;3.33;1.87;;;6.60;88.20;;;;;;5101620;28;20476;-89
2023/03/27 10:42:07;;;;;;;1.20;1.10;;;6.10;90.40;;;;;;5102619;28;20469;-89
2023/03/27 10:44:36;;;;;;;1.10;1.00;;;5.40;93.20;;;;;;5085834;28;20421;-89
2023/03/27 10:47:03;;;;;;;1.33;1.10;;;5.10;95.70;;;;;;5106538;28;20409;-89
2023/03/27 10:49:41;;;;;;;1.30;1.20;;;4.90;96.90;;;;;;5102347;28;20553;-90
2023/03/27 10:52:24;;;;;;;1.20;1.10;;;4.80;97.30;;;;;;5093194;28;20504;-89
2023/03/27 10:55:14;;;;;;;2.83;2.50;;;4.90;97.30;;;;;;5103376;28;20455;-90
2023/03/27 10:57:41;;;;;;;1.30;1.10;;;5.40;97.30;;;;;;5089623;28;20430;-89
2023/03/27 11:00:31;;;;;;;1.03;0.93;;;5.90;96.60;;;;;;5102023;28;20461;-89
2023/03/27 11:03:16;;;;;;;1.73;1.47;;;6.20;93.20;;;;;;5088979;28;21024;-89
2023/03/27 11:05:46;;;;;;;1.10;1.00;;;6.30;92.50;;;;;;5088949;28;20423;-87
2023/03/27 11:08:29;;;;;;;2.40;2.20;;;6.10;91.20;;;;;;5098595;28;20977;-87
2023/03/27 11:11:01;;;;;;;1.00;0.90;;;5.90;91.40;;;;;;5097835;28;20424;-86
2023/03/27 11:13:33;;;;;;;1.10;1.00;;;5.80;93.00;;;;;;5104506;28;20469;-88
2023/03/27 11:16:07;;;;;;;1.00;0.90;;;5.80;92.30;;;;;;5104550;28;20452;-87
2023/03/27 11:18:50;;;;;;;1.40;1.30;;;5.60;94.80;;;;;;5094632;28;20435;-86
2023/03/27 11:21:37;;;;;;;1.17;1.07;;;5.60;97.10;;;;;;5100779;28;20428;-88
2023/03/27 11:24:05;;;;;;;1.07;0.97;;;5.70;96.00;;;;;;5104776;28;20492;-87
2023/03/27 11:26:44;;;;;;;3.63;1.27;;;5.70;93.60;;;;;;5104297;28;20825;-84
2023/03/27 11:29:19;;;;;;;3.23;1.20;;;5.60;93.70;;;;;;5098359;28;20470;-87
2023/03/27 11:31:49;;;;;;;1.00;0.90;;;5.90;94.20;;;;;;5098786;28;20558;-88
2023/03/27 11:34:33;;;;;;;1.00;0.90;;;6.20;94.20;;;;;;5105647;28;20827;-87
2023/03/27 11:37:10;;;;;;;1.10;1.00;;;6.60;91.20;;;;;;5096777;28;20423;-88
2023/03/27 11:40:04;;;;;;;1.17;1.07;;;6.80;88.60;;;;;;5087546;28;20852;-88
2023/03/27 11:42:34;;;;;;;1.53;1.43;;;7.00;88.10;;;;;;5095834;28;20451;-86
2023/03/27 11:45:03;;;;;;;1.50;1.40;;;7.20;87.00;;;;;;5094013;28;20412;-86
2023/03/27 11:47:31;;;;;;;1.30;1.20;;;7.10;87.20;;;;;;5093801;28;20432;-86
2023/03/27 11:50:03;;;;;;;1.10;1.00;;;7.00;89.10;;;;;;5089166;28;20428;-87
2023/03/27 11:52:40;;;;;;;1.00;0.90;;;7.20;90.20;;;;;;5093567;28;20424;-86
2023/03/27 11:55:38;;;;;;;1.33;1.23;;;7.30;88.80;;;;;;5094019;28;20424;-86
2023/03/27 11:58:28;;;;;;;1.10;1.00;;;7.50;88.60;;;;;;5106205;28;20440;-87
2023/03/27 12:01:20;;;;;;;1.20;1.10;;;7.80;88.50;;;;;;5092913;28;20407;-86
2023/03/27 12:04:13;;;;;;;4.37;1.93;;;8.10;87.20;;;;;;5091169;28;20451;-88
2023/03/27 12:07:05;;;;;;;2.13;1.10;;;8.10;85.90;;;;;;5083729;28;20427;-87
2023/03/27 12:09:39;;;;;;;2.40;1.63;;;7.90;86.80;;;;;;5089716;28;20450;-85
2023/03/27 12:12:42;;;;;;;1.10;1.00;;;8.00;87.40;;;;;;5090829;28;20443;-87
2023/03/27 12:15:19;;;;;;;1.20;1.10;;;8.20;86.80;;;;;;5087375;28;20428;-87
2023/03/27 12:17:56;;;;;;;3.60;1.13;;;7.90;84.40;;;;;;5095697;28;20483;-86
2023/03/27 12:20:48;;;;;;;1.30;1.10;;;7.60;84.80;;;;;;5094402;28;21142;-87
2023/03/27 12:23:17;;;;;;;1.00;0.90;;;7.40;84.70;;;;;;5087570;28;20427;-87
2023/03/27 12:25:51;;;;;;;1.60;1.50;;;7.20;86.20;;;;;;5090156;28;20465;-87
2023/03/27 12:28:35;;;;;;;1.00;0.90;;;7.30;85.00;;;;;;5089380;28;20443;-87
2023/03/27 12:31:12;;;;;;;15.47;1.50;;;7.50;84.50;;;;;;5093106;28;20455;-87
2023/03/27 12:33:42;;;;;;;1.13;1.03;;;7.30;79.60;;;;;;5097946;28;20844;-86
2023/03/27 12:36:15;;;;;;;1.10;1.00;;;7.10;79.10;;;;;;5090284;28;20428;-88
2023/03/27 12:38:42;;;;;;;1.10;1.00;;;7.30;80.40;;;;;;5085005;28;20496;-87
2023/03/27 12:41:09;;;;;;;1.20;1.10;;;7.70;79.40;;;;;;5078510;28;20421;-87
2023/03/27 12:43:39;;;;;;;1.20;1.10;;;7.90;80.70;;;;;;5091694;28;20470;-85
2023/03/27 12:46:10;;;;;;;1.10;1.00;;;8.20;79.70;;;;;;5091620;28;20446;-87
2023/03/27 12:49:05;;;;;;;0.93;0.83;;;8.30;78.10;;;;;;5090674;28;20497;-87
2023/03/27 12:51:46;;;;;;;1.40;1.10;;;8.40;79.40;;;;;;5077404;28;20413;-86
2023/03/27 12:54:25;;;;;;;1.27;1.17;;;8.60;81.10;;;;;;5090516;28;20460;-87
2023/03/27 12:57:14;;;;;;;1.03;0.93;;;8.70;79.70;;;;;;5091819;28;20416;-87
2023/03/27 12:59:53;;;;;;;1.10;1.00;;;8.60;78.90;;;;;;5091312;28;20487;-87
2023/03/27 13:02:46;;;;;;;1.73;1.67;;;8.10;79.10;;;;;;5092600;28;20469;-88
2023/03/27 13:05:47;;;;;;;1.20;1.10;;;7.80;81.30;;;;;;5091566;28;20420;-86
2023/03/27 13:08:31;;;;;;;2.20;1.43;;;7.40;82.60;;;;;;5046814;28;20469;-88
2023/03/27 13:10:57;;;;;;;1.10;1.00;;;7.00;83.60;;;;;;5082511;28;20535;-86
2023/03/27 13:13:57;;;;;;;1.10;1.00;;;6.60;86.90;;;;;;5092136;28;20501;-86
2023/03/27 13:16:48;;;;;;;1.00;0.90;;;6.30;88.20;;;;;;5091725;28;20443;-85
2023/03/27 13:19:24;;;;;;;1.20;1.10;;;6.10;89.30;;;;;;5091218;28;20432;-89
2023/03/27 13:22:22;;;;;;;1.10;1.00;;;5.90;93.40;;;;;;5093482;28;20936;-86
2023/03/27 13:24:56;;;;;;;1.10;1.00;;;5.10;97.30;;;;;;5085784;28;20439;-86